sensor_id;sensor_type;location;lat;lon;timestamp;P1;durP1;ratioP1;P2;durP2;ratioP2
10497;SDS011;5296;51.060;13.750;2022-08-01T00:04:23;2.20;;;2.08;;
10497;SDS011;5296;51.060;13.750;2022-08-01T00:09:25;3.22;;;2.05;;
10497;SDS011;5296;51.060;13.750;2022-08-01T00:14:26;2.95;;;2.05;;
10497;SDS011;5296;51.060;13.750;2022-08-01T00:19:33;4.28;;;2.22;;
10497;SDS011;5296;51.060;13.750;2022-08-01T00:24:34;2.55;;;2.30;;
10497;SDS011;5296;51.060;13.750;2022-08-01T00:29:36;2.63;;;2.42;;
10497;SDS011;5296;51.060;13.750;2022-08-01T00:34:57;2.42;;;2.22;;
10497;SDS011;5296;51.060;13.750;2022-08-01T00:39:59;3.85;;;3.45;;
10497;SDS011;5296;51.060;13.750;2022-08-01T00:45:01;2.78;;;2.50;;
10497;SDS011;5296;51.060;13.750;2022-08-01T00:50:03;2.80;;;2.28;;
10497;SDS011;5296;51.060;13.750;2022-08-01T00:55:05;2.67;;;2.30;;
10497;SDS011;5296;51.060;13.750;2022-08-01T01:00:08;3.58;;;2.33;;
10497;SDS011;5296;51.060;13.750;2022-08-01T01:05:10;3.38;;;2.53;;
10497;SDS011;5296;51.060;13.750;2022-08-01T01:10:15;2.38;;;2.17;;
10497;SDS011;5296;51.060;13.750;2022-08-01T01:20:29;2.55;;;2.30;;
10497;SDS011;5296;51.060;13.750;2022-08-01T01:30:56;2.85;;;2.30;;
10497;SDS011;5296;51.060;13.750;2022-08-01T01:35:59;3.42;;;2.38;;
10497;SDS011;5296;51.060;13.750;2022-08-01T01:41:08;2.58;;;2.35;;
10497;SDS011;5296;51.060;13.750;2022-08-01T01:46:11;5.15;;;2.40;;
10497;SDS011;5296;51.060;13.750;2022-08-01T01:51:13;6.15;;;2.70;;
10497;SDS011;5296;51.060;13.750;2022-08-01T01:56:16;3.88;;;2.35;;
10497;SDS011;5296;51.060;13.750;2022-08-01T02:01:19;2.88;;;2.65;;
10497;SDS011;5296;51.060;13.750;2022-08-01T02:06:46;2.78;;;2.47;;
10497;SDS011;5296;51.060;13.750;2022-08-01T02:11:48;2.38;;;2.17;;
10497;SDS011;5296;51.060;13.750;2022-08-01T02:17:12;3.83;;;2.50;;
10497;SDS011;5296;51.060;13.750;2022-08-01T02:27:33;3.30;;;2.70;;
10497;SDS011;5296;51.060;13.750;2022-08-01T02:32:36;3.15;;;2.95;;
10497;SDS011;5296;51.060;13.750;2022-08-01T02:37:41;4.13;;;2.90;;
10497;SDS011;5296;51.060;13.750;2022-08-01T02:42:49;5.32;;;2.75;;
10497;SDS011;5296;51.060;13.750;2022-08-01T02:47:53;2.85;;;2.45;;
10497;SDS011;5296;51.060;13.750;2022-08-01T02:52:57;3.00;;;2.70;;
10497;SDS011;5296;51.060;13.750;2022-08-01T02:58:00;2.90;;;2.70;;
10497;SDS011;5296;51.060;13.750;2022-08-01T03:03:03;3.15;;;2.88;;
10497;SDS011;5296;51.060;13.750;2022-08-01T03:08:07;3.03;;;2.83;;
10497;SDS011;5296;51.060;13.750;2022-08-01T03:13:15;3.05;;;2.70;;
10497;SDS011;5296;51.060;13.750;2022-08-01T03:18:17;2.65;;;2.38;;
10497;SDS011;5296;51.060;13.750;2022-08-01T03:23:19;2.97;;;2.30;;
10497;SDS011;5296;51.060;13.750;2022-08-01T03:28:37;2.95;;;2.33;;
10497;SDS011;5296;51.060;13.750;2022-08-01T03:33:39;2.97;;;2.50;;
10497;SDS011;5296;51.060;13.750;2022-08-01T03:38:41;2.90;;;2.67;;
10497;SDS011;5296;51.060;13.750;2022-08-01T03:44:07;3.38;;;2.65;;
10497;SDS011;5296;51.060;13.750;2022-08-01T03:49:14;2.85;;;2.65;;
10497;SDS011;5296;51.060;13.750;2022-08-01T03:54:30;2.70;;;2.50;;
10497;SDS011;5296;51.060;13.750;2022-08-01T03:59:34;3.28;;;2.90;;
10497;SDS011;5296;51.060;13.750;2022-08-01T04:04:37;2.80;;;2.60;;
10497;SDS011;5296;51.060;13.750;2022-08-01T04:09:39;3.80;;;2.55;;
10497;SDS011;5296;51.060;13.750;2022-08-01T04:14:42;2.85;;;2.40;;
10497;SDS011;5296;51.060;13.750;2022-08-01T04:19:44;2.70;;;2.50;;
10497;SDS011;5296;51.060;13.750;2022-08-01T04:24:47;3.00;;;2.38;;
10497;SDS011;5296;51.060;13.750;2022-08-01T04:29:58;3.95;;;2.33;;
10497;SDS011;5296;51.060;13.750;2022-08-01T04:35:00;3.08;;;2.42;;
10497;SDS011;5296;51.060;13.750;2022-08-01T04:40:27;4.20;;;2.88;;
10497;SDS011;5296;51.060;13.750;2022-08-01T04:45:29;5.55;;;3.00;;
10497;SDS011;5296;51.060;13.750;2022-08-01T04:50:31;3.17;;;2.88;;
10497;SDS011;5296;51.060;13.750;2022-08-01T04:55:33;2.92;;;2.70;;
10497;SDS011;5296;51.060;13.750;2022-08-01T05:00:36;3.00;;;2.80;;
10497;SDS011;5296;51.060;13.750;2022-08-01T05:05:38;3.90;;;2.70;;
10497;SDS011;5296;51.060;13.750;2022-08-01T05:10:40;3.83;;;2.88;;
10497;SDS011;5296;51.060;13.750;2022-08-01T05:15:41;2.92;;;2.70;;
10497;SDS011;5296;51.060;13.750;2022-08-01T05:20:43;3.20;;;2.50;;
10497;SDS011;5296;51.060;13.750;2022-08-01T05:25:45;5.07;;;2.85;;
10497;SDS011;5296;51.060;13.750;2022-08-01T05:30:58;2.80;;;2.47;;
10497;SDS011;5296;51.060;13.750;2022-08-01T05:35:59;4.30;;;2.42;;
10497;SDS011;5296;51.060;13.750;2022-08-01T05:41:01;3.28;;;2.72;;
10497;SDS011;5296;51.060;13.750;2022-08-01T05:46:03;8.88;;;3.20;;
10497;SDS011;5296;51.060;13.750;2022-08-01T05:51:04;7.50;;;2.45;;
10497;SDS011;5296;51.060;13.750;2022-08-01T05:56:06;4.65;;;2.50;;
10497;SDS011;5296;51.060;13.750;2022-08-01T06:01:08;3.00;;;2.42;;
10497;SDS011;5296;51.060;13.750;2022-08-01T06:06:09;5.55;;;2.60;;
10497;SDS011;5296;51.060;13.750;2022-08-01T06:11:11;5.60;;;2.55;;
10497;SDS011;5296;51.060;13.750;2022-08-01T06:16:13;4.85;;;2.30;;
10497;SDS011;5296;51.060;13.750;2022-08-01T06:21:15;2.78;;;2.38;;
10497;SDS011;5296;51.060;13.750;2022-08-01T06:26:17;3.78;;;2.63;;
10497;SDS011;5296;51.060;13.750;2022-08-01T06:31:19;16.98;;;3.00;;
10497;SDS011;5296;51.060;13.750;2022-08-01T06:36:21;6.97;;;2.55;;
10497;SDS011;5296;51.060;13.750;2022-08-01T06:41:22;6.03;;;2.53;;
10497;SDS011;5296;51.060;13.750;2022-08-01T06:46:24;3.92;;;2.50;;
10497;SDS011;5296;51.060;13.750;2022-08-01T06:51:30;3.90;;;2.35;;
10497;SDS011;5296;51.060;13.750;2022-08-01T06:56:32;4.10;;;2.20;;
10497;SDS011;5296;51.060;13.750;2022-08-01T07:01:36;3.58;;;2.42;;
10497;SDS011;5296;51.060;13.750;2022-08-01T07:06:38;3.05;;;2.55;;
10497;SDS011;5296;51.060;13.750;2022-08-01T07:11:39;5.43;;;2.90;;
10497;SDS011;5296;51.060;13.750;2022-08-01T07:16:41;3.15;;;2.85;;
10497;SDS011;5296;51.060;13.750;2022-08-01T07:21:43;3.40;;;2.80;;
10497;SDS011;5296;51.060;13.750;2022-08-01T07:26:46;3.05;;;2.80;;
10497;SDS011;5296;51.060;13.750;2022-08-01T07:31:55;5.30;;;3.15;;
10497;SDS011;5296;51.060;13.750;2022-08-01T07:36:57;3.55;;;3.05;;
10497;SDS011;5296;51.060;13.750;2022-08-01T07:41:59;3.40;;;3.10;;
10497;SDS011;5296;51.060;13.750;2022-08-01T07:47:08;4.03;;;2.90;;
10497;SDS011;5296;51.060;13.750;2022-08-01T07:52:10;3.38;;;3.08;;
10497;SDS011;5296;51.060;13.750;2022-08-01T07:57:11;3.47;;;3.10;;
10497;SDS011;5296;51.060;13.750;2022-08-01T08:02:13;3.67;;;3.10;;
10497;SDS011;5296;51.060;13.750;2022-08-01T08:07:15;3.58;;;2.90;;
10497;SDS011;5296;51.060;13.750;2022-08-01T08:12:16;4.18;;;2.70;;
10497;SDS011;5296;51.060;13.750;2022-08-01T08:17:28;3.47;;;2.30;;
10497;SDS011;5296;51.060;13.750;2022-08-01T08:22:36;2.65;;;2.42;;
10497;SDS011;5296;51.060;13.750;2022-08-01T08:27:38;2.58;;;2.00;;
10497;SDS011;5296;51.060;13.750;2022-08-01T08:32:40;2.85;;;1.88;;
10497;SDS011;5296;51.060;13.750;2022-08-01T08:37:42;2.47;;;2.20;;
10497;SDS011;5296;51.060;13.750;2022-08-01T08:42:49;2.60;;;2.00;;
10497;SDS011;5296;51.060;13.750;2022-08-01T08:47:52;3.42;;;2.17;;
10497;SDS011;5296;51.060;13.750;2022-08-01T08:52:54;8.27;;;2.28;;
10497;SDS011;5296;51.060;13.750;2022-08-01T08:57:58;4.57;;;1.85;;
10497;SDS011;5296;51.060;13.750;2022-08-01T09:03:01;6.43;;;1.95;;
10497;SDS011;5296;51.060;13.750;2022-08-01T09:08:06;4.85;;;1.67;;
10497;SDS011;5296;51.060;13.750;2022-08-01T09:13:10;2.85;;;1.70;;
10497;SDS011;5296;51.060;13.750;2022-08-01T09:18:26;4.50;;;2.03;;
10497;SDS011;5296;51.060;13.750;2022-08-01T09:23:37;2.67;;;1.80;;
10497;SDS011;5296;51.060;13.750;2022-08-01T09:28:55;6.85;;;2.28;;
10497;SDS011;5296;51.060;13.750;2022-08-01T09:33:58;2.10;;;2.00;;
10497;SDS011;5296;51.060;13.750;2022-08-01T09:39:04;2.80;;;2.50;;
10497;SDS011;5296;51.060;13.750;2022-08-01T09:44:14;3.63;;;2.05;;
10497;SDS011;5296;51.060;13.750;2022-08-01T09:49:40;11.55;;;3.13;;
10497;SDS011;5296;51.060;13.750;2022-08-01T09:54:56;10.68;;;2.40;;
10497;SDS011;5296;51.060;13.750;2022-08-01T09:59:59;4.38;;;1.70;;
10497;SDS011;5296;51.060;13.750;2022-08-01T10:05:12;3.00;;;1.60;;
10497;SDS011;5296;51.060;13.750;2022-08-01T10:10:21;4.80;;;1.80;;
10497;SDS011;5296;51.060;13.750;2022-08-01T10:15:29;3.42;;;1.80;;
10497;SDS011;5296;51.060;13.750;2022-08-01T10:20:38;5.18;;;1.70;;
10497;SDS011;5296;51.060;13.750;2022-08-01T10:25:40;4.47;;;1.55;;
10497;SDS011;5296;51.060;13.750;2022-08-01T10:30:47;4.03;;;1.50;;
10497;SDS011;5296;51.060;13.750;2022-08-01T10:35:50;9.07;;;1.63;;
10497;SDS011;5296;51.060;13.750;2022-08-01T10:40:52;1.23;;;1.23;;
10497;SDS011;5296;51.060;13.750;2022-08-01T10:45:55;3.80;;;1.60;;
10497;SDS011;5296;51.060;13.750;2022-08-01T10:50:58;3.45;;;1.30;;
10497;SDS011;5296;51.060;13.750;2022-08-01T10:56:02;3.40;;;1.10;;
10497;SDS011;5296;51.060;13.750;2022-08-01T11:11:33;2.13;;;0.80;;
10497;SDS011;5296;51.060;13.750;2022-08-01T11:33:16;5.75;;;1.23;;
10497;SDS011;5296;51.060;13.750;2022-08-01T11:38:24;12.73;;;1.33;;
10497;SDS011;5296;51.060;13.750;2022-08-01T11:43:31;4.10;;;1.00;;
10497;SDS011;5296;51.060;13.750;2022-08-01T11:48:33;9.82;;;1.75;;
10497;SDS011;5296;51.060;13.750;2022-08-01T11:53:35;4.68;;;1.50;;
10497;SDS011;5296;51.060;13.750;2022-08-01T11:58:41;2.05;;;1.10;;
10497;SDS011;5296;51.060;13.750;2022-08-01T12:03:42;10.27;;;1.65;;
10497;SDS011;5296;51.060;13.750;2022-08-01T12:08:46;1.80;;;1.27;;
10497;SDS011;5296;51.060;13.750;2022-08-01T12:13:47;1.95;;;1.30;;
10497;SDS011;5296;51.060;13.750;2022-08-01T12:18:50;1.10;;;1.10;;
10497;SDS011;5296;51.060;13.750;2022-08-01T12:24:01;4.78;;;1.33;;
10497;SDS011;5296;51.060;13.750;2022-08-01T12:29:03;1.85;;;0.90;;
10497;SDS011;5296;51.060;13.750;2022-08-01T12:39:29;5.82;;;1.52;;
10497;SDS011;5296;51.060;13.750;2022-08-01T12:44:33;4.45;;;1.20;;
10497;SDS011;5296;51.060;13.750;2022-08-01T12:49:35;8.55;;;1.50;;
10497;SDS011;5296;51.060;13.750;2022-08-01T13:05:40;9.07;;;1.52;;
10497;SDS011;5296;51.060;13.750;2022-08-01T13:11:03;10.25;;;1.80;;
10497;SDS011;5296;51.060;13.750;2022-08-01T13:16:10;3.47;;;1.35;;
10497;SDS011;5296;51.060;13.750;2022-08-01T13:21:32;7.25;;;1.63;;
10497;SDS011;5296;51.060;13.750;2022-08-01T13:26:55;3.42;;;0.93;;
10497;SDS011;5296;51.060;13.750;2022-08-01T13:32:00;23.30;;;2.30;;
10497;SDS011;5296;51.060;13.750;2022-08-01T13:37:30;4.85;;;1.30;;
10497;SDS011;5296;51.060;13.750;2022-08-01T13:42:32;5.70;;;1.20;;
10497;SDS011;5296;51.060;13.750;2022-08-01T13:47:34;8.65;;;1.70;;
10497;SDS011;5296;51.060;13.750;2022-08-01T13:52:36;19.30;;;2.97;;
10497;SDS011;5296;51.060;13.750;2022-08-01T13:57:37;1.60;;;0.90;;
10497;SDS011;5296;51.060;13.750;2022-08-01T14:02:39;8.88;;;1.50;;
10497;SDS011;5296;51.060;13.750;2022-08-01T14:07:41;5.05;;;1.60;;
10497;SDS011;5296;51.060;13.750;2022-08-01T14:12:48;3.35;;;1.40;;
10497;SDS011;5296;51.060;13.750;2022-08-01T14:17:51;2.22;;;1.25;;
10497;SDS011;5296;51.060;13.750;2022-08-01T14:22:52;1.45;;;1.10;;
10497;SDS011;5296;51.060;13.750;2022-08-01T14:27:54;8.95;;;1.50;;
10497;SDS011;5296;51.060;13.750;2022-08-01T14:32:56;4.65;;;1.67;;
10497;SDS011;5296;51.060;13.750;2022-08-01T14:37:57;3.03;;;1.27;;
10497;SDS011;5296;51.060;13.750;2022-08-01T14:43:00;7.88;;;1.80;;
10497;SDS011;5296;51.060;13.750;2022-08-01T14:48:02;1.55;;;1.27;;
10497;SDS011;5296;51.060;13.750;2022-08-01T14:53:04;3.53;;;1.38;;
10497;SDS011;5296;51.060;13.750;2022-08-01T14:58:05;4.15;;;1.90;;
10497;SDS011;5296;51.060;13.750;2022-08-01T15:03:07;2.38;;;1.20;;
10497;SDS011;5296;51.060;13.750;2022-08-01T15:08:09;1.77;;;1.10;;
10497;SDS011;5296;51.060;13.750;2022-08-01T15:13:10;1.83;;;1.00;;
10497;SDS011;5296;51.060;13.750;2022-08-01T15:18:12;3.80;;;1.10;;
10497;SDS011;5296;51.060;13.750;2022-08-01T15:23:13;1.13;;;0.98;;
10497;SDS011;5296;51.060;13.750;2022-08-01T15:28:15;1.20;;;1.10;;
10497;SDS011;5296;51.060;13.750;2022-08-01T15:33:17;1.70;;;1.20;;
10497;SDS011;5296;51.060;13.750;2022-08-01T15:38:19;1.33;;;1.20;;
10497;SDS011;5296;51.060;13.750;2022-08-01T15:43:20;2.03;;;1.38;;
10497;SDS011;5296;51.060;13.750;2022-08-01T15:48:22;1.65;;;1.20;;
10497;SDS011;5296;51.060;13.750;2022-08-01T15:53:24;2.30;;;1.02;;
10497;SDS011;5296;51.060;13.750;2022-08-01T15:58:25;1.35;;;1.00;;
10497;SDS011;5296;51.060;13.750;2022-08-01T16:03:27;1.35;;;0.88;;
10497;SDS011;5296;51.060;13.750;2022-08-01T16:08:29;1.05;;;0.93;;
10497;SDS011;5296;51.060;13.750;2022-08-01T16:13:30;1.00;;;0.98;;
10497;SDS011;5296;51.060;13.750;2022-08-01T16:18:32;1.38;;;1.30;;
10497;SDS011;5296;51.060;13.750;2022-08-01T16:23:33;1.00;;;1.00;;
10497;SDS011;5296;51.060;13.750;2022-08-01T16:28:35;1.13;;;1.05;;
10497;SDS011;5296;51.060;13.750;2022-08-01T16:33:37;1.85;;;1.08;;
10497;SDS011;5296;51.060;13.750;2022-08-01T16:38:54;1.10;;;1.10;;
10497;SDS011;5296;51.060;13.750;2022-08-01T16:43:56;1.27;;;1.17;;
10497;SDS011;5296;51.060;13.750;2022-08-01T16:48:58;1.30;;;1.10;;
10497;SDS011;5296;51.060;13.750;2022-08-01T16:54:00;0.65;;;0.65;;
10497;SDS011;5296;51.060;13.750;2022-08-01T16:59:01;3.05;;;0.90;;
10497;SDS011;5296;51.060;13.750;2022-08-01T17:04:03;1.95;;;0.93;;
10497;SDS011;5296;51.060;13.750;2022-08-01T17:09:05;0.90;;;0.90;;
10497;SDS011;5296;51.060;13.750;2022-08-01T17:14:06;3.10;;;1.10;;
10497;SDS011;5296;51.060;13.750;2022-08-01T17:19:08;1.10;;;1.10;;
10497;SDS011;5296;51.060;13.750;2022-08-01T17:24:10;1.00;;;0.90;;
10497;SDS011;5296;51.060;13.750;2022-08-01T17:29:16;2.53;;;1.00;;
10497;SDS011;5296;51.060;13.750;2022-08-01T17:34:18;3.03;;;0.95;;
10497;SDS011;5296;51.060;13.750;2022-08-01T17:39:20;0.88;;;0.85;;
10497;SDS011;5296;51.060;13.750;2022-08-01T17:44:38;3.20;;;0.90;;
10497;SDS011;5296;51.060;13.750;2022-08-01T17:49:49;1.13;;;1.02;;
10497;SDS011;5296;51.060;13.750;2022-08-01T17:54:55;2.05;;;1.10;;
10497;SDS011;5296;51.060;13.750;2022-08-01T17:59:57;2.20;;;1.10;;
10497;SDS011;5296;51.060;13.750;2022-08-01T18:04:58;2.50;;;1.02;;
10497;SDS011;5296;51.060;13.750;2022-08-01T18:10:00;1.65;;;1.00;;
10497;SDS011;5296;51.060;13.750;2022-08-01T18:15:03;0.88;;;0.88;;
10497;SDS011;5296;51.060;13.750;2022-08-01T18:20:07;1.08;;;1.08;;
10497;SDS011;5296;51.060;13.750;2022-08-01T18:25:09;0.90;;;0.90;;
10497;SDS011;5296;51.060;13.750;2022-08-01T18:30:10;3.40;;;1.00;;
10497;SDS011;5296;51.060;13.750;2022-08-01T18:35:12;0.80;;;0.80;;
10497;SDS011;5296;51.060;13.750;2022-08-01T18:40:15;1.20;;;0.95;;
10497;SDS011;5296;51.060;13.750;2022-08-01T18:45:23;3.08;;;1.17;;
10497;SDS011;5296;51.060;13.750;2022-08-01T18:50:24;1.15;;;1.02;;
10497;SDS011;5296;51.060;13.750;2022-08-01T18:55:27;1.33;;;1.10;;
10497;SDS011;5296;51.060;13.750;2022-08-01T19:00:29;1.25;;;1.23;;
10497;SDS011;5296;51.060;13.750;2022-08-01T19:05:30;3.10;;;1.50;;
10497;SDS011;5296;51.060;13.750;2022-08-01T19:10:37;1.55;;;1.45;;
10497;SDS011;5296;51.060;13.750;2022-08-01T19:15:39;2.55;;;1.70;;
10497;SDS011;5296;51.060;13.750;2022-08-01T19:20:41;1.00;;;1.00;;
10497;SDS011;5296;51.060;13.750;2022-08-01T19:25:44;1.40;;;1.30;;
10497;SDS011;5296;51.060;13.750;2022-08-01T19:30:56;2.65;;;2.20;;
10497;SDS011;5296;51.060;13.750;2022-08-01T19:35:58;2.33;;;1.40;;
10497;SDS011;5296;51.060;13.750;2022-08-01T19:41:00;1.73;;;1.63;;
10497;SDS011;5296;51.060;13.750;2022-08-01T19:46:03;1.30;;;1.20;;
10497;SDS011;5296;51.060;13.750;2022-08-01T19:51:18;1.17;;;1.10;;
10497;SDS011;5296;51.060;13.750;2022-08-01T19:56:24;2.00;;;1.33;;
10497;SDS011;5296;51.060;13.750;2022-08-01T20:01:26;1.98;;;1.70;;
10497;SDS011;5296;51.060;13.750;2022-08-01T20:06:28;1.40;;;1.27;;
10497;SDS011;5296;51.060;13.750;2022-08-01T20:11:29;1.35;;;1.10;;
10497;SDS011;5296;51.060;13.750;2022-08-01T20:16:31;1.30;;;1.20;;
10497;SDS011;5296;51.060;13.750;2022-08-01T20:21:34;2.35;;;1.10;;
10497;SDS011;5296;51.060;13.750;2022-08-01T20:26:36;2.33;;;1.35;;
10497;SDS011;5296;51.060;13.750;2022-08-01T20:31:39;1.17;;;1.10;;
10497;SDS011;5296;51.060;13.750;2022-08-01T20:36:44;2.55;;;1.23;;
10497;SDS011;5296;51.060;13.750;2022-08-01T20:41:56;2.28;;;1.40;;
10497;SDS011;5296;51.060;13.750;2022-08-01T20:47:01;2.95;;;1.38;;
10497;SDS011;5296;51.060;13.750;2022-08-01T20:52:05;1.27;;;1.17;;
10497;SDS011;5296;51.060;13.750;2022-08-01T21:02:29;6.78;;;1.13;;
10497;SDS011;5296;51.060;13.750;2022-08-01T21:23:23;1.92;;;1.30;;
10497;SDS011;5296;51.060;13.750;2022-08-01T21:28:28;1.23;;;1.13;;
10497;SDS011;5296;51.060;13.750;2022-08-01T21:33:34;1.40;;;1.20;;
10497;SDS011;5296;51.060;13.750;2022-08-01T21:39:01;4.00;;;1.50;;
10497;SDS011;5296;51.060;13.750;2022-08-01T21:44:03;1.50;;;1.40;;
10497;SDS011;5296;51.060;13.750;2022-08-01T21:49:05;2.63;;;1.40;;
10497;SDS011;5296;51.060;13.750;2022-08-01T22:00:18;1.15;;;1.15;;
10497;SDS011;5296;51.060;13.750;2022-08-01T22:05:27;1.48;;;1.38;;
10497;SDS011;5296;51.060;13.750;2022-08-01T22:10:59;1.95;;;1.77;;
10497;SDS011;5296;51.060;13.750;2022-08-01T22:16:04;1.60;;;1.50;;
10497;SDS011;5296;51.060;13.750;2022-08-01T22:21:07;2.72;;;1.77;;
10497;SDS011;5296;51.060;13.750;2022-08-01T22:26:09;1.67;;;1.58;;
10497;SDS011;5296;51.060;13.750;2022-08-01T22:31:11;1.75;;;1.65;;
10497;SDS011;5296;51.060;13.750;2022-08-01T22:36:16;5.13;;;1.92;;
10497;SDS011;5296;51.060;13.750;2022-08-01T22:41:20;1.83;;;1.67;;
10497;SDS011;5296;51.060;13.750;2022-08-01T22:46:42;2.03;;;1.77;;
10497;SDS011;5296;51.060;13.750;2022-08-01T22:57:19;1.60;;;1.50;;
10497;SDS011;5296;51.060;13.750;2022-08-01T23:02:25;1.98;;;1.77;;
10497;SDS011;5296;51.060;13.750;2022-08-01T23:07:31;1.85;;;1.73;;
10497;SDS011;5296;51.060;13.750;2022-08-01T23:12:34;1.80;;;1.70;;
10497;SDS011;5296;51.060;13.750;2022-08-01T23:17:36;1.60;;;1.50;;
10497;SDS011;5296;51.060;13.750;2022-08-01T23:22:38;1.60;;;1.50;;
10497;SDS011;5296;51.060;13.750;2022-08-01T23:27:42;2.00;;;1.50;;
10497;SDS011;5296;51.060;13.750;2022-08-01T23:33:05;1.52;;;1.30;;
10497;SDS011;5296;51.060;13.750;2022-08-01T23:38:07;1.88;;;1.40;;
10497;SDS011;5296;51.060;13.750;2022-08-01T23:43:10;1.52;;;1.40;;
10497;SDS011;5296;51.060;13.750;2022-08-01T23:48:17;1.30;;;1.20;;
10497;SDS011;5296;51.060;13.750;2022-08-01T23:53:19;1.30;;;1.20;;
10497;SDS011;5296;51.060;13.750;2022-08-01T23:58:21;1.30;;;1.20;;
